Terminal Aerodrome Forecast
Issued by NWS Goodland, KS

Home | Current Version | Previous Version | Text Only | Print | Product List | Glossary On
Versions: 1 2 3 4 5 6 7 8 9 10 11 12 13 14 15 16 17 18 19 20 21 22
000
FTUS43 KGLD 021725
TAFGLD
TAF
KGLD 021725Z 0218/0318 18022G30KT P6SM OVC015
     FM030600 20021G29KT P6SM FEW020 BKN200 WS020/22055KT
     FM031100 27019G26KT P6SM BKN070
     FM031300 30018G25KT P6SM BKN045
     FM031600 35020G28KT P6SM BKN015=

USA.gov is the U.S. government's official web portal to all federal, state and local government web resources and services.